Time;durP1;ratioP1;P1;durP2;ratioP2;P2;SDS_P1;SDS_P2;PMS_P1;PMS_P2;Temp;Humidity;BMP_temperature;BMP_pressure;BME280_temperature;BME280_humidity;BME280_pressure;Samples;Min_cycle;Max_cycle;Signal;HPM_P1;HPM_P2
2022/10/18 00:02:13;;;;;;;11.38;4.00;;;15.30;99.90;;;;;;5053504;28;20871;-61
2022/10/18 00:04:40;;;;;;;9.47;4.07;;;15.30;99.90;;;;;;5053578;28;20592;-61
2022/10/18 00:07:08;;;;;;;6.73;3.80;;;15.30;99.90;;;;;;5053278;28;20225;-61
2022/10/18 00:09:35;;;;;;;9.53;3.87;;;15.30;99.90;;;;;;5052775;28;20670;-62
2022/10/18 00:12:02;;;;;;;10.43;4.03;;;15.30;99.90;;;;;;5053648;28;20221;-61
2022/10/18 00:14:28;;;;;;;8.53;4.33;;;15.30;99.90;;;;;;5053512;28;20216;-61
2022/10/18 00:16:55;;;;;;;8.13;3.70;;;15.30;99.90;;;;;;5053202;28;20688;-62
2022/10/18 00:19:22;;;;;;;6.60;3.80;;;15.30;99.90;;;;;;5052698;28;20574;-61
2022/10/18 00:21:50;;;;;;;10.70;4.03;;;15.30;99.90;;;;;;5053168;28;20229;-62
2022/10/18 00:24:18;;;;;;;8.97;4.00;;;15.30;99.90;;;;;;5052765;28;20660;-62
2022/10/18 00:26:45;;;;;;;8.73;3.60;;;15.30;99.90;;;;;;5053148;28;20222;-61
2022/10/18 00:29:14;;;;;;;11.57;4.17;;;15.30;99.90;;;;;;5052581;28;20206;-62
2022/10/18 00:31:42;;;;;;;8.23;3.70;;;15.30;99.90;;;;;;5052962;28;20221;-61
2022/10/18 00:34:11;;;;;;;8.70;3.93;;;15.30;99.90;;;;;;5053146;28;20582;-62
2022/10/18 00:36:38;;;;;;;10.60;3.90;;;15.20;99.90;;;;;;5053551;28;20208;-61
2022/10/18 00:39:06;;;;;;;11.20;4.07;;;15.20;99.90;;;;;;5052756;28;20201;-61
2022/10/18 00:41:36;;;;;;;8.40;3.43;;;15.10;99.90;;;;;;5053072;28;20241;-61
2022/10/18 00:44:06;;;;;;;6.07;3.13;;;15.10;99.90;;;;;;5053338;28;20565;-61
2022/10/18 00:46:34;;;;;;;8.47;3.27;;;15.00;99.90;;;;;;5052697;28;20693;-61
2022/10/18 00:49:05;;;;;;;8.00;3.30;;;14.90;99.90;;;;;;5052505;28;20209;-61
2022/10/18 00:51:37;;;;;;;8.93;3.53;;;14.80;99.90;;;;;;5052803;28;20225;-62
2022/10/18 00:54:04;;;;;;;8.80;3.80;;;14.70;99.90;;;;;;5052772;28;20210;-62
2022/10/18 00:56:33;;;;;;;8.80;3.90;;;14.80;99.90;;;;;;5052570;28;20221;-61
2022/10/18 00:59:02;;;;;;;5.00;3.73;;;14.80;99.90;;;;;;5052458;28;20576;-61
2022/10/18 01:01:28;;;;;;;8.77;3.73;;;14.90;99.90;;;;;;5051790;28;20236;-63
2022/10/18 01:03:56;;;;;;;4.50;3.67;;;14.90;99.90;;;;;;5052820;28;20575;-61
2022/10/18 01:06:23;;;;;;;10.20;4.00;;;15.00;99.90;;;;;;5052530;28;20252;-61
2022/10/18 01:09:05;;;;;;;7.13;4.00;;;15.00;99.90;;;;;;5052391;28;20216;-62
2022/10/18 01:11:42;;;;;;;5.50;3.90;;;15.10;99.90;;;;;;5052872;28;20229;-60
2022/10/18 01:14:21;;;;;;;10.80;3.67;;;15.10;99.90;;;;;;5052493;28;20209;-62
2022/10/18 01:16:54;;;;;;;7.63;3.80;;;15.30;99.90;;;;;;5052425;28;20580;-62
2022/10/18 01:20:01;;;;;;;6.93;3.70;;;15.40;99.90;;;;;;5051667;28;20201;-59
2022/10/18 01:22:33;;;;;;;8.33;3.60;;;15.50;99.90;;;;;;5052210;28;20221;-61
2022/10/18 01:25:08;;;;;;;8.00;3.80;;;15.60;99.90;;;;;;5052247;28;20562;-61
2022/10/18 01:27:48;;;;;;;3.90;3.00;;;15.70;99.90;;;;;;5052010;28;20236;-61
2022/10/18 01:30:36;;;;;;;10.83;3.70;;;15.80;99.90;;;;;;5051288;28;20673;-61
2022/10/18 01:33:10;;;;;;;8.40;3.53;;;15.80;99.90;;;;;;5051858;28;20665;-61
2022/10/18 01:35:42;;;;;;;7.27;3.47;;;15.80;99.90;;;;;;5051522;28;20205;-61
2022/10/18 01:38:15;;;;;;;9.63;3.80;;;15.80;99.90;;;;;;5051832;28;20218;-61
2022/10/18 01:40:45;;;;;;;10.23;4.03;;;15.80;99.90;;;;;;5051050;28;20695;-61
2022/10/18 01:43:13;;;;;;;8.30;3.77;;;15.80;99.90;;;;;;5052248;28;20244;-58
2022/10/18 01:45:42;;;;;;;6.50;3.27;;;15.90;99.90;;;;;;5051941;28;20206;-59
2022/10/18 01:48:10;;;;;;;8.40;4.07;;;16.00;99.90;;;;;;5051659;28;20202;-58
2022/10/18 01:50:37;;;;;;;6.33;3.60;;;16.00;99.90;;;;;;5051187;28;20209;-58
2022/10/18 01:53:03;;;;;;;9.33;3.90;;;16.10;99.90;;;;;;5051694;28;20205;-58
2022/10/18 01:55:36;;;;;;;7.97;3.43;;;16.20;99.90;;;;;;5051639;28;20209;-59
2022/10/18 01:58:10;;;;;;;8.10;3.70;;;16.30;99.90;;;;;;5051745;28;20197;-58
2022/10/18 02:00:41;;;;;;;6.50;3.50;;;16.30;99.90;;;;;;5051128;28;20201;-59
2022/10/18 02:03:16;;;;;;;8.17;3.57;;;16.30;99.90;;;;;;5051675;28;20247;-58
2022/10/18 02:05:48;;;;;;;6.03;3.58;;;16.30;99.90;;;;;;5051603;28;20213;-60
2022/10/18 02:08:20;;;;;;;10.63;3.70;;;16.30;99.90;;;;;;5051634;28;20586;-58
2022/10/18 02:10:50;;;;;;;8.87;3.60;;;16.30;99.90;;;;;;5050984;28;20228;-58
2022/10/18 02:13:20;;;;;;;11.70;3.90;;;16.30;99.90;;;;;;5051599;28;20252;-59
2022/10/18 02:15:50;;;;;;;10.53;3.60;;;16.40;99.90;;;;;;5051809;28;20201;-60
2022/10/18 02:18:22;;;;;;;15.03;3.57;;;16.30;99.90;;;;;;5051676;28;20205;-58
2022/10/18 02:20:49;;;;;;;8.83;3.30;;;16.40;99.90;;;;;;5051047;28;20410;-58
2022/10/18 02:23:19;;;;;;;7.43;3.30;;;16.40;99.90;;;;;;5051330;28;20210;-58
2022/10/18 02:25:46;;;;;;;10.40;3.40;;;16.40;99.90;;;;;;5051509;28;20217;-58
2022/10/18 02:28:13;;;;;;;9.80;3.40;;;16.30;99.90;;;;;;5051318;28;20232;-60
2022/10/18 02:30:47;;;;;;;14.33;4.10;;;16.20;99.90;;;;;;5050734;28;20216;-58
2022/10/18 02:33:19;;;;;;;7.53;3.30;;;16.00;99.90;;;;;;5051163;28;20217;-58
2022/10/18 02:35:51;;;;;;;6.88;3.53;;;16.00;99.90;;;;;;5051545;28;20256;-59
2022/10/18 02:38:19;;;;;;;4.63;3.30;;;16.10;99.90;;;;;;5051373;28;20674;-59
2022/10/18 02:40:46;;;;;;;12.83;3.80;;;16.20;99.90;;;;;;5050648;28;20673;-58
2022/10/18 02:43:14;;;;;;;8.97;3.47;;;16.30;99.90;;;;;;5051566;28;20210;-59
2022/10/18 02:45:41;;;;;;;10.77;3.67;;;16.30;99.90;;;;;;5051087;28;20210;-59
2022/10/18 02:48:08;;;;;;;7.13;3.60;;;16.40;99.90;;;;;;5053456;28;20229;-59
2022/10/18 02:50:36;;;;;;;4.78;3.15;;;16.40;99.90;;;;;;5054504;28;20570;-59
2022/10/18 02:53:03;;;;;;;10.80;3.70;;;16.50;99.90;;;;;;5054878;28;20219;-59
2022/10/18 02:55:29;;;;;;;5.43;3.17;;;16.40;99.90;;;;;;5054792;28;20209;-60
2022/10/18 02:57:56;;;;;;;6.93;3.35;;;16.50;99.90;;;;;;5054735;28;20206;-59
2022/10/18 03:00:23;;;;;;;5.07;3.30;;;16.40;99.90;;;;;;5054210;28;20288;-58
2022/10/18 03:02:49;;;;;;;6.88;3.17;;;16.40;99.90;;;;;;5054624;28;20634;-59
2022/10/18 03:05:16;;;;;;;8.87;3.40;;;16.40;99.90;;;;;;5054671;28;20210;-59
2022/10/18 03:07:44;;;;;;;6.57;3.47;;;16.50;99.90;;;;;;5054618;28;20237;-59
2022/10/18 03:10:11;;;;;;;3.85;3.28;;;16.60;99.90;;;;;;5053979;28;20677;-59
2022/10/18 03:12:38;;;;;;;9.90;3.50;;;16.60;99.90;;;;;;5054614;28;20228;-59
2022/10/18 03:15:05;;;;;;;8.98;3.58;;;16.60;99.90;;;;;;5054605;28;20581;-59
2022/10/18 03:17:32;;;;;;;11.75;3.20;;;16.60;99.90;;;;;;5054475;28;20232;-58
2022/10/18 03:19:59;;;;;;;6.30;3.27;;;16.50;99.90;;;;;;5053937;28;20209;-59
2022/10/18 03:22:26;;;;;;;6.97;2.87;;;16.50;99.90;;;;;;5054259;28;20705;-59
2022/10/18 03:24:54;;;;;;;4.77;3.17;;;16.40;99.90;;;;;;5054569;28;20308;-58
2022/10/18 03:27:21;;;;;;;6.33;3.30;;;16.50;99.90;;;;;;5054043;28;20236;-59
2022/10/18 03:29:48;;;;;;;5.13;2.97;;;16.60;99.90;;;;;;5053782;28;20206;-59
2022/10/18 03:32:14;;;;;;;7.93;3.28;;;16.60;99.90;;;;;;5053944;28;20748;-59
2022/10/18 03:34:41;;;;;;;7.40;3.47;;;16.70;99.90;;;;;;5054275;28;20543;-59
2022/10/18 03:37:08;;;;;;;5.45;3.05;;;16.60;99.90;;;;;;5054450;28;20217;-59
2022/10/18 03:39:35;;;;;;;6.32;3.25;;;16.70;99.90;;;;;;5053582;28;20205;-59
2022/10/18 03:42:03;;;;;;;5.88;3.05;;;16.70;99.90;;;;;;5053873;28;20237;-59
2022/10/18 03:44:30;;;;;;;5.97;3.00;;;16.70;99.90;;;;;;5036029;28;20202;-59
2022/10/18 03:46:56;;;;;;;7.78;3.63;;;16.70;99.90;;;;;;5053845;28;20233;-59
2022/10/18 03:49:23;;;;;;;8.18;3.70;;;16.70;99.90;;;;;;5053070;28;20590;-59
2022/10/18 03:51:50;;;;;;;6.97;4.35;;;16.60;99.90;;;;;;5053766;28;20232;-58
2022/10/18 03:54:17;;;;;;;8.23;4.10;;;16.60;99.90;;;;;;5053764;28;20209;-59
2022/10/18 03:56:43;;;;;;;7.97;3.70;;;16.60;99.90;;;;;;5054031;28;20206;-59
2022/10/18 03:59:11;;;;;;;7.05;4.20;;;16.70;99.90;;;;;;5053854;28;20240;-59
2022/10/18 04:01:38;;;;;;;7.60;3.50;;;16.70;99.90;;;;;;5054594;28;20233;-59
2022/10/18 04:04:05;;;;;;;5.90;3.42;;;16.70;99.90;;;;;;5055118;28;20208;-59
2022/10/18 04:06:32;;;;;;;5.70;2.97;;;16.50;99.90;;;;;;5054519;28;20674;-59
2022/10/18 04:08:58;;;;;;;9.97;3.27;;;16.40;99.90;;;;;;5054677;28;20206;-59
2022/10/18 04:11:25;;;;;;;6.32;3.03;;;16.30;99.90;;;;;;5054313;28;20225;-58
2022/10/18 04:13:52;;;;;;;8.02;3.20;;;16.30;99.90;;;;;;5054828;28;20216;-59
2022/10/18 04:16:20;;;;;;;13.25;3.60;;;16.20;99.90;;;;;;5055055;28;20201;-59
2022/10/18 04:18:47;;;;;;;7.88;3.13;;;16.10;99.90;;;;;;5055908;28;20202;-59
2022/10/18 04:21:13;;;;;;;8.65;3.35;;;16.10;99.90;;;;;;5054825;28;20234;-59
2022/10/18 04:23:40;;;;;;;9.38;3.33;;;16.20;99.90;;;;;;5054271;28;20206;-59
2022/10/18 04:26:07;;;;;;;11.80;3.83;;;16.30;99.90;;;;;;5054267;28;20212;-59
2022/10/18 04:28:38;;;;;;;8.98;2.97;;;16.40;99.90;;;;;;5053980;28;20260;-59
2022/10/18 04:31:05;;;;;;;8.63;3.30;;;16.50;99.90;;;;;;5052568;28;20225;-58
2022/10/18 04:33:33;;;;;;;6.05;2.90;;;16.60;99.90;;;;;;5053115;28;20209;-59
2022/10/18 04:36:00;;;;;;;14.40;3.50;;;16.50;99.90;;;;;;5053037;28;20201;-60
2022/10/18 04:38:27;;;;;;;10.15;3.75;;;16.40;99.90;;;;;;5052902;28;20205;-58
2022/10/18 04:40:54;;;;;;;9.73;4.10;;;16.40;99.90;;;;;;5052542;28;20229;-59
2022/10/18 04:43:20;;;;;;;10.70;4.57;;;16.40;99.90;;;;;;5053113;28;20214;-59
2022/10/18 04:45:49;;;;;;;9.33;4.40;;;16.40;99.90;;;;;;5053209;28;20209;-59
2022/10/18 04:48:16;;;;;;;11.43;4.55;;;16.50;99.90;;;;;;5053641;28;20256;-61
2022/10/18 04:50:47;;;;;;;9.02;4.00;;;16.60;99.90;;;;;;5053121;28;20213;-59
2022/10/18 04:53:14;;;;;;;6.45;2.95;;;16.80;99.90;;;;;;5052870;28;20616;-58
2022/10/18 04:55:43;;;;;;;9.85;3.65;;;16.90;99.90;;;;;;5052595;28;20205;-60
2022/10/18 04:58:10;;;;;;;6.43;2.92;;;17.00;99.90;;;;;;5052634;28;20202;-59
2022/10/18 05:00:38;;;;;;;8.40;3.20;;;17.00;99.90;;;;;;5052231;28;20212;-59
2022/10/18 05:03:04;;;;;;;9.15;2.90;;;17.10;99.90;;;;;;5052191;28;20209;-60
2022/10/18 05:05:31;;;;;;;6.30;2.78;;;17.10;99.90;;;;;;5052308;28;20750;-60
2022/10/18 05:07:59;;;;;;;9.95;3.17;;;17.10;99.90;;;;;;5052356;28;20230;-59
2022/10/18 05:10:26;;;;;;;4.55;3.33;;;17.00;99.90;;;;;;5051543;28;20209;-59
2022/10/18 05:12:52;;;;;;;6.30;3.40;;;17.00;99.90;;;;;;5051992;28;20233;-59
2022/10/18 05:15:19;;;;;;;8.07;3.33;;;16.90;99.90;;;;;;5051940;28;20212;-59
2022/10/18 05:17:46;;;;;;;13.18;3.67;;;16.90;99.90;;;;;;5051936;28;20673;-59
2022/10/18 05:20:13;;;;;;;13.60;3.53;;;16.70;99.90;;;;;;5051731;28;20209;-59
2022/10/18 05:22:40;;;;;;;9.20;3.90;;;16.60;99.90;;;;;;5052673;28;20229;-60
2022/10/18 05:25:09;;;;;;;7.85;3.45;;;16.30;99.90;;;;;;5052305;28;20213;-59
2022/10/18 05:27:36;;;;;;;8.52;3.30;;;16.10;99.90;;;;;;5052055;28;20225;-59
2022/10/18 05:30:02;;;;;;;6.18;3.30;;;15.90;99.90;;;;;;5051510;28;20211;-59
2022/10/18 05:32:29;;;;;;;7.72;4.00;;;15.80;99.90;;;;;;5052141;28;20221;-59
2022/10/18 05:34:56;;;;;;;5.97;3.45;;;15.70;99.90;;;;;;5052517;28;20614;-59
2022/10/18 05:37:23;;;;;;;11.80;4.25;;;15.70;99.90;;;;;;5051918;28;20696;-59
2022/10/18 05:39:49;;;;;;;10.40;3.90;;;15.70;99.90;;;;;;5051604;28;20206;-61
2022/10/18 05:42:18;;;;;;;12.07;3.63;;;15.80;99.90;;;;;;5051810;28;20237;-60
2022/10/18 05:44:44;;;;;;;8.90;4.00;;;15.80;99.90;;;;;;5051762;28;20217;-60
2022/10/18 05:47:11;;;;;;;6.80;3.72;;;15.80;99.90;;;;;;5052042;28;20206;-59
2022/10/18 05:49:38;;;;;;;8.83;5.63;;;15.80;99.90;;;;;;5051274;28;20216;-61
2022/10/18 05:52:05;;;;;;;16.90;7.93;;;15.80;99.90;;;;;;5051517;28;20233;-59
2022/10/18 05:54:32;;;;;;;9.43;4.20;;;15.80;99.90;;;;;;5051696;28;20209;-59
2022/10/18 05:56:58;;;;;;;9.53;5.10;;;15.90;99.90;;;;;;5051773;28;20205;-60
2022/10/18 05:59:27;;;;;;;9.53;4.87;;;15.90;99.90;;;;;;5051365;28;20215;-61
2022/10/18 06:01:53;;;;;;;11.88;4.38;;;15.90;99.90;;;;;;5051016;28;20574;-66
2022/10/18 06:04:20;;;;;;;11.63;4.33;;;15.90;99.90;;;;;;5051932;28;20689;-66
2022/10/18 06:06:47;;;;;;;7.93;3.67;;;15.90;99.90;;;;;;5051900;28;20296;-65
2022/10/18 06:09:14;;;;;;;12.98;4.45;;;15.80;99.90;;;;;;5051336;28;20226;-69
2022/10/18 06:11:40;;;;;;;12.37;4.10;;;15.70;99.90;;;;;;5045835;28;20233;-63
2022/10/18 06:14:08;;;;;;;7.13;3.77;;;15.70;99.90;;;;;;5046381;28;20212;-64
2022/10/18 06:16:36;;;;;;;11.00;4.07;;;15.80;99.90;;;;;;5049549;28;20654;-64
2022/10/18 06:19:03;;;;;;;10.17;4.20;;;15.80;99.90;;;;;;5050630;28;20212;-64
2022/10/18 06:21:30;;;;;;;11.17;3.93;;;15.70;99.90;;;;;;5049241;28;20636;-64
2022/10/18 06:23:58;;;;;;;8.20;4.73;;;15.70;99.90;;;;;;5053723;28;20245;-65
2022/10/18 06:26:27;;;;;;;8.00;3.90;;;15.80;99.90;;;;;;5053722;28;20414;-64
2022/10/18 06:28:53;;;;;;;9.47;3.87;;;15.80;99.90;;;;;;5054641;28;20230;-64
2022/10/18 06:31:20;;;;;;;6.03;3.77;;;15.90;99.90;;;;;;5053830;28;20242;-65
2022/10/18 06:33:49;;;;;;;6.90;3.93;;;15.90;99.90;;;;;;5053955;28;20263;-62
2022/10/18 06:36:18;;;;;;;7.20;3.80;;;16.00;99.90;;;;;;5053762;28;20611;-63
2022/10/18 06:38:45;;;;;;;6.43;4.13;;;16.10;99.90;;;;;;5054122;28;20585;-64
2022/10/18 06:41:12;;;;;;;8.65;4.38;;;16.30;99.90;;;;;;5053074;28;20229;-62
2022/10/18 06:43:39;;;;;;;10.45;3.88;;;16.60;99.90;;;;;;5054174;28;20205;-62
2022/10/18 06:46:08;;;;;;;7.87;4.10;;;16.80;99.90;;;;;;5053527;28;20205;-64
2022/10/18 06:48:35;;;;;;;9.68;4.75;;;17.10;99.90;;;;;;5053752;28;20221;-63
2022/10/18 06:51:05;;;;;;;7.30;4.20;;;17.40;99.90;;;;;;5053646;28;20226;-64
2022/10/18 06:53:34;;;;;;;7.95;4.55;;;18.00;99.90;;;;;;5053584;28;20210;-62
2022/10/18 06:56:01;;;;;;;6.35;3.40;;;18.70;99.90;;;;;;5053592;28;20213;-62
2022/10/18 06:58:28;;;;;;;11.15;3.72;;;19.50;99.90;;;;;;5053953;28;20298;-62
2022/10/18 07:00:55;;;;;;;5.38;3.83;;;20.30;99.90;;;;;;5055146;28;20221;-61
2022/10/18 07:03:22;;;;;;;7.50;3.58;;;21.20;99.90;;;;;;5054458;28;20205;-64
2022/10/18 07:05:49;;;;;;;7.10;4.07;;;21.90;99.90;;;;;;5053114;28;20205;-61
2022/10/18 07:08:17;;;;;;;6.85;4.07;;;22.10;99.90;;;;;;5053781;28;20233;-62
2022/10/18 07:10:51;;;;;;;7.03;3.58;;;22.00;99.90;;;;;;5052980;28;20748;-61
2022/10/18 07:13:18;;;;;;;7.47;3.83;;;21.70;99.90;;;;;;5053668;28;20265;-62
2022/10/18 07:15:44;;;;;;;8.10;3.33;;;21.50;99.90;;;;;;5053005;28;20220;-62
2022/10/18 07:18:11;;;;;;;8.55;3.50;;;21.30;99.90;;;;;;5053468;28;20208;-63
2022/10/18 07:20:38;;;;;;;4.70;2.95;;;21.10;99.90;;;;;;5052632;28;20205;-61
2022/10/18 07:23:07;;;;;;;5.78;3.10;;;20.90;99.90;;;;;;5052956;28;20236;-62
2022/10/18 07:25:35;;;;;;;5.07;3.15;;;20.80;99.90;;;;;;5052888;28;20241;-63
2022/10/18 07:28:02;;;;;;;9.55;3.00;;;20.80;99.90;;;;;;5052985;28;20283;-62
2022/10/18 07:30:29;;;;;;;8.57;3.03;;;20.80;99.90;;;;;;5052574;28;20205;-63
2022/10/18 07:32:55;;;;;;;5.93;2.80;;;20.80;99.90;;;;;;5052947;28;20226;-62
2022/10/18 07:35:22;;;;;;;4.90;2.70;;;20.90;99.90;;;;;;5052241;28;20667;-62
2022/10/18 07:37:49;;;;;;;7.15;2.75;;;21.00;99.90;;;;;;5052744;28;20209;-64
2022/10/18 07:40:15;;;;;;;4.60;2.50;;;21.00;99.90;;;;;;5052782;28;20213;-64
2022/10/18 07:42:44;;;;;;;8.43;3.13;;;21.00;99.90;;;;;;5053592;28;20609;-64
2022/10/18 07:45:12;;;;;;;8.40;3.17;;;21.00;99.90;;;;;;5052398;28;20206;-60
2022/10/18 07:47:39;;;;;;;11.57;2.70;;;21.00;99.90;;;;;;5051699;28;20616;-59
2022/10/18 07:50:07;;;;;;;4.18;2.67;;;21.10;99.90;;;;;;5052143;28;20213;-60
2022/10/18 07:52:33;;;;;;;6.00;3.35;;;21.20;99.90;;;;;;5052638;28;20233;-61
2022/10/18 07:55:00;;;;;;;6.18;3.45;;;21.30;99.90;;;;;;5052709;28;20624;-61
2022/10/18 07:57:27;;;;;;;7.40;2.67;;;21.40;99.90;;;;;;5052489;28;20208;-60
2022/10/18 07:59:55;;;;;;;6.70;2.70;;;21.30;99.90;;;;;;5051554;28;20208;-61
2022/10/18 08:02:22;;;;;;;5.32;2.63;;;21.40;99.90;;;;;;5052224;28;20585;-61
2022/10/18 08:04:49;;;;;;;5.10;2.60;;;21.50;99.90;;;;;;5052095;28;20698;-61
2022/10/18 08:07:16;;;;;;;4.70;2.80;;;21.70;99.90;;;;;;5052447;28;20279;-58
2022/10/18 08:09:43;;;;;;;10.25;2.67;;;21.80;99.90;;;;;;5052314;28;20225;-59
2022/10/18 08:12:09;;;;;;;8.93;2.58;;;21.90;99.90;;;;;;5051665;28;20490;-59
2022/10/18 08:14:36;;;;;;;7.13;2.50;;;22.10;99.90;;;;;;5052047;28;20638;-60
2022/10/18 08:17:04;;;;;;;5.63;2.70;;;22.30;99.90;;;;;;5052123;28;20212;-59
2022/10/18 08:19:31;;;;;;;10.25;2.40;;;22.50;99.90;;;;;;5052262;28;20210;-59
2022/10/18 08:21:58;;;;;;;4.60;2.45;;;22.70;99.90;;;;;;5052170;28;20240;-59
2022/10/18 08:24:25;;;;;;;6.43;2.53;;;22.90;99.90;;;;;;5051360;28;20210;-60
2022/10/18 08:26:51;;;;;;;5.70;3.20;;;23.10;99.90;;;;;;5052807;28;20201;-60
2022/10/18 08:29:18;;;;;;;9.70;3.15;;;23.40;99.90;;;;;;5051768;28;20225;-60
2022/10/18 08:31:45;;;;;;;6.72;2.40;;;23.60;99.90;;;;;;5051540;28;20262;-61
2022/10/18 08:34:13;;;;;;;4.43;2.40;;;23.80;99.90;;;;;;5052273;28;20205;-60
2022/10/18 08:36:40;;;;;;;5.22;2.65;;;23.90;99.90;;;;;;5051409;28;20201;-61
2022/10/18 08:39:06;;;;;;;4.78;2.35;;;24.00;99.90;;;;;;5051619;28;20696;-63
2022/10/18 08:41:48;;;;;;;3.85;2.42;;;24.30;99.90;;;;;;5051142;28;20237;-60
2022/10/18 08:44:20;;;;;;;5.68;2.38;;;24.60;99.90;;;;;;5052167;28;20613;-60
2022/10/18 08:46:49;;;;;;;11.60;3.13;;;24.90;99.90;;;;;;5051244;28;20202;-60
2022/10/18 08:49:25;;;;;;;5.70;2.60;;;25.20;99.90;;;;;;5051388;28;20226;-60
2022/10/18 08:51:53;;;;;;;9.15;2.40;;;25.30;99.90;;;;;;5050828;28;20766;-60
2022/10/18 08:54:27;;;;;;;5.20;2.75;;;25.40;99.90;;;;;;5051122;28;20201;-61
2022/10/18 08:56:59;;;;;;;10.38;3.13;;;25.30;99.90;;;;;;5051621;28;20212;-60
2022/10/18 08:59:31;;;;;;;10.25;3.10;;;25.20;99.90;;;;;;5052153;28;20223;-60
2022/10/18 09:02:05;;;;;;;9.60;2.90;;;24.80;99.90;;;;;;5050694;28;20229;-61
2022/10/18 09:04:45;;;;;;;6.20;2.97;;;24.50;99.90;;;;;;5051465;28;20202;-59
2022/10/18 09:07:35;;;;;;;7.72;2.90;;;24.30;99.90;;;;;;5051421;28;20665;-60
2022/10/18 09:10:08;;;;;;;7.18;2.88;;;24.00;99.90;;;;;;5050564;28;20229;-60
2022/10/18 09:12:51;;;;;;;9.05;2.78;;;23.90;99.90;;;;;;5051156;28;20233;-59
2022/10/18 09:15:29;;;;;;;9.75;2.92;;;23.80;99.90;;;;;;5050451;28;20214;-60
2022/10/18 09:18:09;;;;;;;8.05;3.50;;;23.70;99.90;;;;;;5050971;28;20217;-60
2022/10/18 09:20:48;;;;;;;8.02;2.92;;;23.90;99.90;;;;;;5050601;28;20209;-59
2022/10/18 09:23:19;;;;;;;5.88;2.75;;;24.20;99.90;;;;;;5051023;28;20212;-60
2022/10/18 09:25:48;;;;;;;7.30;2.80;;;24.20;99.90;;;;;;5050097;28;20700;-60
2022/10/18 09:28:21;;;;;;;6.95;3.10;;;24.00;99.90;;;;;;5050794;28;20744;-59
2022/10/18 09:30:56;;;;;;;6.93;3.17;;;23.90;99.90;;;;;;5050454;28;20293;-60
2022/10/18 09:33:41;;;;;;;8.25;3.28;;;23.70;99.90;;;;;;5051381;28;20620;-60
2022/10/18 09:36:13;;;;;;;6.38;2.92;;;23.80;99.90;;;;;;5050458;28;20217;-60
2022/10/18 09:38:44;;;;;;;7.05;2.78;;;23.80;99.90;;;;;;5050941;28;20202;-60
2022/10/18 09:41:18;;;;;;;5.68;2.53;;;23.60;99.90;;;;;;5050166;28;20237;-60
2022/10/18 09:43:53;;;;;;;7.97;2.70;;;23.50;99.90;;;;;;5050888;28;20202;-61
2022/10/18 09:46:23;;;;;;;4.80;2.60;;;23.50;99.90;;;;;;5050262;28;20623;-61
2022/10/18 09:48:54;;;;;;;10.25;2.60;;;23.50;99.90;;;;;;5050006;28;20746;-60
2022/10/18 09:51:25;;;;;;;5.22;2.08;;;23.30;99.90;;;;;;5049977;28;20229;-61
2022/10/18 09:54:13;;;;;;;4.80;2.40;;;23.10;99.90;;;;;;5050710;28;20225;-60
2022/10/18 09:56:44;;;;;;;7.75;2.70;;;22.90;99.90;;;;;;5049700;28;20335;-60
2022/10/18 09:59:27;;;;;;;8.55;2.70;;;22.60;99.90;;;;;;5050858;28;20197;-61
2022/10/18 10:01:54;;;;;;;5.53;2.40;;;22.40;99.90;;;;;;5049493;28;20607;-60
2022/10/18 10:04:20;;;;;;;4.95;2.35;;;22.40;99.90;;;;;;5050370;28;20692;-60
2022/10/18 10:06:51;;;;;;;8.05;2.80;;;22.50;99.90;;;;;;5050667;28;20236;-60
2022/10/18 10:09:25;;;;;;;7.95;2.72;;;22.70;99.90;;;;;;5050100;28;20221;-59
2022/10/18 10:11:54;;;;;;;5.88;2.38;;;22.70;99.90;;;;;;5050487;28;20252;-60
2022/10/18 10:14:24;;;;;;;5.65;2.30;;;23.00;99.90;;;;;;5050304;28;20213;-60
2022/10/18 10:16:53;;;;;;;6.95;2.63;;;23.10;99.90;;;;;;5050732;28;20205;-61
2022/10/18 10:19:26;;;;;;;4.55;2.28;;;23.30;99.90;;;;;;5050557;28;20205;-62
2022/10/18 10:21:59;;;;;;;8.60;2.47;;;23.60;99.90;;;;;;5049994;28;20226;-62
2022/10/18 10:24:34;;;;;;;7.95;2.25;;;23.60;99.90;;;;;;5050214;28;20619;-62
2022/10/18 10:27:13;;;;;;;6.03;2.50;;;23.40;99.90;;;;;;5050050;28;20641;-61
2022/10/18 10:29:58;;;;;;;7.60;2.60;;;23.20;99.90;;;;;;5050226;28;20225;-62
2022/10/18 10:32:28;;;;;;;8.88;2.70;;;23.20;99.90;;;;;;5049447;28;20347;-61
2022/10/18 10:34:55;;;;;;;5.57;2.67;;;23.10;99.90;;;;;;5050352;28;20299;-61
2022/10/18 10:37:33;;;;;;;4.90;2.95;;;23.20;99.90;;;;;;5050391;28;20209;-63
2022/10/18 10:40:15;;;;;;;7.93;2.72;;;23.30;99.90;;;;;;5050592;28;20206;-61
2022/10/18 10:43:01;;;;;;;4.72;2.88;;;23.40;99.90;;;;;;5050206;28;20233;-61
2022/10/18 10:45:31;;;;;;;8.07;2.90;;;23.60;99.90;;;;;;5050738;28;20201;-64
2022/10/18 10:48:06;;;;;;;11.30;3.03;;;23.50;99.90;;;;;;5050653;28;20210;-63
2022/10/18 10:50:46;;;;;;;7.38;3.13;;;23.30;99.90;;;;;;5049103;28;20233;-62
2022/10/18 10:53:37;;;;;;;4.28;2.92;;;23.30;99.90;;;;;;5050238;28;20579;-62
2022/10/18 10:56:05;;;;;;;7.78;3.03;;;23.30;99.90;;;;;;5049991;28;20216;-62
2022/10/18 10:58:36;;;;;;;4.75;3.00;;;23.40;99.90;;;;;;5050089;28;20202;-62
2022/10/18 11:01:19;;;;;;;5.38;2.53;;;23.60;99.90;;;;;;5048980;28;20717;-64
2022/10/18 11:03:47;;;;;;;7.03;3.22;;;23.80;99.90;;;;;;5050166;28;20620;-62
2022/10/18 11:06:34;;;;;;;6.00;3.60;;;23.80;99.90;;;;;;5050635;28;20232;-62
2022/10/18 11:09:09;;;;;;;7.78;2.80;;;23.90;99.90;;;;;;5051664;28;20225;-64
2022/10/18 11:11:45;;;;;;;8.63;2.83;;;24.00;99.90;;;;;;5052630;28;20232;-61
2022/10/18 11:14:21;;;;;;;5.03;2.72;;;24.00;99.90;;;;;;5047130;28;20209;-64
2022/10/18 11:16:54;;;;;;;9.30;3.08;;;23.90;99.90;;;;;;5053012;28;20525;-64
2022/10/18 11:19:42;;;;;;;5.10;3.35;;;24.10;99.90;;;;;;5053634;28;20742;-63
2022/10/18 11:22:14;;;;;;;4.88;2.50;;;24.20;99.90;;;;;;5053024;28;20602;-63
2022/10/18 11:24:43;;;;;;;8.15;3.28;;;24.30;99.90;;;;;;5053432;28;20208;-64
2022/10/18 11:27:16;;;;;;;7.90;2.97;;;24.30;99.90;;;;;;5052760;28;20210;-63
2022/10/18 11:30:01;;;;;;;8.73;2.95;;;24.20;99.90;;;;;;5053220;28;20222;-63
2022/10/18 11:32:34;;;;;;;8.38;3.15;;;24.10;99.90;;;;;;5052284;28;20237;-64
2022/10/18 11:35:22;;;;;;;8.13;3.15;;;24.00;99.90;;;;;;5052999;28;20205;-64
2022/10/18 11:38:05;;;;;;;7.78;2.95;;;24.10;99.90;;;;;;5052842;28;20694;-63
2022/10/18 11:40:57;;;;;;;5.72;3.10;;;24.20;99.90;;;;;;5052449;28;20638;-62
2022/10/18 11:43:27;;;;;;;8.57;2.60;;;24.20;99.90;;;;;;5053488;28;20213;-63
2022/10/18 11:46:01;;;;;;;7.43;2.55;;;24.30;99.90;;;;;;5052274;28;20217;-62
2022/10/18 11:48:45;;;;;;;6.57;3.40;;;24.30;99.90;;;;;;5053901;28;20205;-62
2022/10/18 11:51:19;;;;;;;10.13;2.90;;;24.20;99.90;;;;;;5052334;28;20229;-62
2022/10/18 11:54:01;;;;;;;6.50;3.00;;;23.90;99.90;;;;;;5053874;28;20261;-63
2022/10/18 11:56:38;;;;;;;6.88;2.70;;;23.70;99.90;;;;;;5053690;28;20251;-63
2022/10/18 11:59:24;;;;;;;6.05;2.65;;;23.70;99.90;;;;;;5053634;28;20213;-62
2022/10/18 12:02:04;;;;;;;5.18;2.90;;;23.80;99.90;;;;;;5052405;28;20222;-62
2022/10/18 12:04:36;;;;;;;9.80;2.30;;;23.90;99.90;;;;;;5053130;28;20457;-62
2022/10/18 12:07:06;;;;;;;8.27;2.78;;;23.90;99.90;;;;;;5056324;28;20208;-63
2022/10/18 12:09:37;;;;;;;5.75;2.28;;;24.00;99.90;;;;;;5061422;28;20601;-63
2022/10/18 12:12:09;;;;;;;5.72;2.78;;;24.00;99.90;;;;;;5059470;28;20229;-63
2022/10/18 12:14:39;;;;;;;6.03;2.60;;;23.90;99.90;;;;;;5059659;28;20205;-62
2022/10/18 12:17:12;;;;;;;4.40;2.45;;;23.70;99.90;;;;;;5052533;28;20205;-62
2022/10/18 12:19:40;;;;;;;5.43;2.47;;;23.50;99.90;;;;;;5052556;28;20619;-62
2022/10/18 12:22:14;;;;;;;9.90;2.70;;;23.50;99.90;;;;;;5051578;28;20233;-63
2022/10/18 12:24:41;;;;;;;5.82;2.60;;;23.70;99.90;;;;;;5053150;28;20213;-62
2022/10/18 12:27:13;;;;;;;9.23;2.42;;;23.70;99.90;;;;;;5055886;28;20209;-62
2022/10/18 12:29:45;;;;;;;8.40;2.50;;;23.80;99.90;;;;;;5057731;28;20228;-62
2022/10/18 12:32:15;;;;;;;4.50;2.38;;;23.90;99.90;;;;;;5054473;28;20232;-63
2022/10/18 12:34:46;;;;;;;4.65;2.20;;;23.90;99.90;;;;;;5052053;28;20216;-63
2022/10/18 12:37:36;;;;;;;3.97;1.75;;;23.90;99.90;;;;;;5051319;28;20209;-63
2022/10/18 12:40:10;;;;;;;3.30;2.50;;;24.00;99.90;;;;;;5051894;28;20620;-63
2022/10/18 12:42:43;;;;;;;5.25;1.92;;;24.10;99.90;;;;;;5051008;28;20237;-62
2022/10/18 12:45:25;;;;;;;5.65;2.60;;;24.30;99.90;;;;;;5051281;28;20216;-63
2022/10/18 12:47:52;;;;;;;4.47;2.15;;;24.50;99.90;;;;;;5051864;28;20190;-63
2022/10/18 12:50:33;;;;;;;4.45;2.30;;;24.60;99.90;;;;;;5051018;28;20658;-62
2022/10/18 12:53:14;;;;;;;6.60;2.20;;;24.60;99.90;;;;;;5051497;28;20308;-63
2022/10/18 12:55:43;;;;;;;3.70;1.98;;;24.30;99.90;;;;;;5051628;28;20713;-62
2022/10/18 12:58:32;;;;;;;12.77;3.63;;;23.90;99.90;;;;;;5051777;28;20216;-62
2022/10/18 13:01:01;;;;;;;5.68;2.35;;;23.80;99.90;;;;;;5046060;28;20240;-62
2022/10/18 13:03:51;;;;;;;3.97;1.90;;;23.80;99.90;;;;;;5051135;28;20708;-63